Time;durP1;ratioP1;P1;durP2;ratioP2;P2;SDS_P1;SDS_P2;PMS_P1;PMS_P2;Temp;Humidity;BMP_temperature;BMP_pressure;BME280_temperature;BME280_humidity;BME280_pressure;Samples;Min_cycle;Max_cycle;Signal;HPM_P1;HPM_P2
2022/01/07 00:00:47;;;;;;;42.67;18.33;;;2.60;99.90;;;;;;6184561;23;20183;-51
2022/01/07 00:03:14;;;;;;;60.67;22.73;;;2.60;99.90;;;;;;6184835;23;20178;-51
2022/01/07 00:05:40;;;;;;;53.20;19.70;;;2.60;38.20;;;;;;6184737;23;20370;-51
2022/01/07 00:08:06;;;;;;;54.47;20.47;;;2.60;99.90;;;;;;6185154;23;20469;-51
2022/01/07 00:10:32;;;;;;;54.37;20.93;;;2.60;99.90;;;;;;6184613;23;20789;-51
2022/01/07 00:12:58;;;;;;;49.37;20.50;;;2.60;1.00;;;;;;6158212;23;20205;-51
2022/01/07 00:15:23;;;;;;;50.03;20.57;;;2.60;99.90;;;;;;6184571;23;20916;-51
2022/01/07 00:17:50;;;;;;;55.83;21.23;;;2.60;92.10;;;;;;6183869;23;20151;-51
2022/01/07 00:20:16;;;;;;;48.17;20.10;;;2.60;1.00;;;;;;6184118;23;20179;-51
2022/01/07 00:22:43;;;;;;;46.47;19.73;;;2.60;1.00;;;;;;6184264;23;20749;-51
2022/01/07 00:25:10;;;;;;;62.20;20.40;;;2.60;1.00;;;;;;6184215;23;20825;-51
2022/01/07 00:27:36;;;;;;;44.63;19.77;;;2.60;99.90;;;;;;6184292;23;20379;-51
2022/01/07 00:30:03;;;;;;;52.50;20.57;;;2.60;1.00;;;;;;6183889;23;20390;-52
2022/01/07 00:32:28;;;;;;;48.10;19.17;;;2.60;99.90;;;;;;6184220;23;20386;-51
2022/01/07 00:34:54;;;;;;;54.00;20.77;;;2.60;99.90;;;;;;6181487;23;20376;-51
2022/01/07 00:37:20;;;;;;;43.13;20.40;;;2.60;99.90;;;;;;6183721;23;20163;-52
2022/01/07 00:39:45;;;;;;;45.63;19.80;;;2.60;47.30;;;;;;6184357;23;20428;-52
2022/01/07 00:42:11;;;;;;;39.37;18.33;;;2.60;1.00;;;;;;6158046;23;20163;-51
2022/01/07 00:44:37;;;;;;;50.33;20.27;;;2.60;1.00;;;;;;6184352;23;20158;-51
2022/01/07 00:47:03;;;;;;;44.63;19.17;;;2.60;1.00;;;;;;6183716;23;20375;-51
2022/01/07 00:49:29;;;;;;;44.10;18.90;;;2.60;1.00;;;;;;6184098;23;20167;-52
2022/01/07 00:51:56;;;;;;;46.57;18.20;;;2.60;99.90;;;;;;6157733;23;20406;-51
2022/01/07 00:54:22;;;;;;;51.27;19.00;;;2.60;99.90;;;;;;6184141;23;20170;-51
2022/01/07 00:56:48;;;;;;;46.90;17.53;;;2.60;99.90;;;;;;6184099;23;20367;-51
2022/01/07 00:59:13;;;;;;;44.27;18.70;;;2.60;99.90;;;;;;6184142;23;20154;-51
2022/01/07 01:01:39;;;;;;;52.63;19.83;;;2.60;89.00;;;;;;6183824;23;20871;-51
2022/01/07 01:04:05;;;;;;;47.87;17.87;;;2.60;1.00;;;;;;6184115;23;20143;-51
2022/01/07 01:06:30;;;;;;;59.33;17.67;;;2.60;1.00;;;;;;6184195;23;20573;-52
2022/01/07 01:08:56;;;;;;;47.13;17.23;;;2.60;1.00;;;;;;6183334;23;20450;-52
2022/01/07 01:11:22;;;;;;;53.40;18.80;;;2.60;1.00;;;;;;6184143;23;20190;-51
2022/01/07 01:13:47;;;;;;;44.80;16.10;;;2.60;1.00;;;;;;6184495;23;20713;-51
2022/01/07 01:16:13;;;;;;;45.87;17.83;;;2.60;1.00;;;;;;6183990;23;20389;-51
2022/01/07 01:18:39;;;;;;;52.67;18.50;;;2.60;1.00;;;;;;6184748;23;20230;-50
2022/01/07 01:21:04;;;;;;;47.60;17.47;;;2.50;1.00;;;;;;6157440;23;20201;-51
2022/01/07 01:23:30;;;;;;;40.80;17.50;;;2.60;99.90;;;;;;6183991;23;20390;-51
2022/01/07 01:25:55;;;;;;;38.80;16.73;;;2.60;99.90;;;;;;6184198;23;20175;-51
2022/01/07 01:28:21;;;;;;;41.00;16.70;;;2.60;99.90;;;;;;6183871;23;20174;-51
2022/01/07 01:30:47;;;;;;;44.70;17.20;;;2.60;99.90;;;;;;6157409;23;20214;-51
2022/01/07 01:33:12;;;;;;;39.53;18.10;;;2.60;99.90;;;;;;6157807;23;20159;-55
2022/01/07 01:35:40;;;;;;;34.20;14.93;;;2.60;99.90;;;;;;6183604;23;20206;-51
2022/01/07 01:38:05;;;;;;;41.10;16.53;;;2.60;85.80;;;;;;6183967;23;20167;-51
2022/01/07 01:40:31;;;;;;;39.27;15.10;;;2.60;14.60;;;;;;6184165;23;20422;-51
2022/01/07 01:42:57;;;;;;;39.83;15.47;;;2.70;1.00;;;;;;6184135;23;20155;-51
2022/01/07 01:45:24;;;;;;;34.37;15.40;;;2.60;1.00;;;;;;6184072;23;20736;-51
2022/01/07 01:47:51;;;;;;;39.67;15.00;;;2.70;1.00;;;;;;6183832;23;20406;-51
2022/01/07 01:50:17;;;;;;;34.00;14.03;;;2.60;1.00;;;;;;6157340;23;20702;-51
2022/01/07 01:52:49;;;;;;;41.07;14.27;;;2.60;1.00;;;;;;6157155;23;20397;-51
2022/01/07 01:55:16;;;;;;;37.53;14.37;;;2.70;1.00;;;;;;6183512;23;20159;-51
2022/01/07 01:57:42;;;;;;;33.43;13.50;;;2.70;1.00;;;;;;6156998;23;20433;-52
2022/01/07 02:00:09;;;;;;;29.10;12.97;;;2.70;1.00;;;;;;6183021;23;20955;-51
2022/01/07 02:02:35;;;;;;;35.97;14.17;;;2.70;1.00;;;;;;6183246;23;20374;-51
2022/01/07 02:05:00;;;;;;;36.43;14.83;;;2.70;1.00;;;;;;6183402;23;20374;-51
2022/01/07 02:07:27;;;;;;;39.13;13.87;;;2.70;1.00;;;;;;6183743;23;20406;-51
2022/01/07 02:09:53;;;;;;;33.07;13.63;;;2.70;1.00;;;;;;6183673;23;21175;-51
2022/01/07 02:12:19;;;;;;;36.27;13.80;;;2.70;1.00;;;;;;6183377;23;20148;-51
2022/01/07 02:14:53;;;;;;;29.90;11.97;;;2.70;1.00;;;;;;6183222;23;20374;-52
2022/01/07 02:17:20;;;;;;;26.60;13.20;;;2.70;1.00;;;;;;6183222;23;20147;-51
2022/01/07 02:19:46;;;;;;;32.70;12.20;;;2.80;1.00;;;;;;6183516;23;20429;-51
2022/01/07 02:22:12;;;;;;;26.60;11.43;;;2.80;1.00;;;;;;6183332;23;20422;-51
2022/01/07 02:24:38;;;;;;;31.20;12.30;;;2.80;1.00;;;;;;6180935;23;20610;-52
2022/01/07 02:27:05;;;;;;;28.60;11.50;;;2.80;99.90;;;;;;6183484;23;20379;-50
2022/01/07 02:29:31;;;;;;;33.33;13.97;;;2.80;99.90;;;;;;6183293;23;20157;-51
2022/01/07 02:31:57;;;;;;;29.63;12.67;;;2.80;99.90;;;;;;6183780;23;20374;-51
2022/01/07 02:34:23;;;;;;;32.10;13.10;;;2.80;99.90;;;;;;6183328;23;20501;-51
2022/01/07 02:36:48;;;;;;;36.00;12.07;;;2.80;99.90;;;;;;6183146;23;20879;-52
2022/01/07 02:39:14;;;;;;;24.67;10.00;;;2.80;99.90;;;;;;6156776;23;20397;-52
2022/01/07 02:41:39;;;;;;;30.47;11.00;;;2.80;99.90;;;;;;6182628;23;20187;-51
2022/01/07 02:44:05;;;;;;;27.20;11.17;;;2.90;99.90;;;;;;6183421;23;20197;-51
2022/01/07 02:46:31;;;;;;;35.33;11.43;;;2.90;99.90;;;;;;6183822;23;20159;-51
2022/01/07 02:48:57;;;;;;;28.40;10.37;;;2.90;99.90;;;;;;6183816;23;20219;-51
2022/01/07 02:51:23;;;;;;;32.57;10.10;;;2.80;99.90;;;;;;6183280;23;20266;-57
2022/01/07 02:53:48;;;;;;;29.23;11.00;;;2.90;99.90;;;;;;6183585;23;20423;-50
2022/01/07 02:56:14;;;;;;;19.40;9.73;;;2.90;99.90;;;;;;6183503;23;20518;-51
2022/01/07 02:58:40;;;;;;;30.47;9.90;;;2.90;99.90;;;;;;6183417;23;20143;-51
2022/01/07 03:01:05;;;;;;;24.20;10.13;;;2.90;99.90;;;;;;6182837;23;20179;-51
2022/01/07 03:03:31;;;;;;;39.13;12.67;;;2.90;99.90;;;;;;6183037;23;20640;-51
2022/01/07 03:05:56;;;;;;;28.20;9.90;;;2.90;99.90;;;;;;6182718;23;20163;-51
2022/01/07 03:08:22;;;;;;;24.33;8.47;;;2.90;99.90;;;;;;6156684;23;20620;-51
2022/01/07 03:10:48;;;;;;;26.60;10.50;;;3.00;99.90;;;;;;6183094;23;20233;-51
2022/01/07 03:13:13;;;;;;;19.13;8.60;;;3.00;99.90;;;;;;6183375;23;20218;-51
2022/01/07 03:15:39;;;;;;;19.70;8.20;;;3.00;99.90;;;;;;6183006;23;20612;-51
2022/01/07 03:18:06;;;;;;;19.30;9.40;;;3.00;99.90;;;;;;6182972;23;20177;-51
2022/01/07 03:20:38;;;;;;;26.03;7.87;;;3.00;99.90;;;;;;6182725;23;20187;-51
2022/01/07 03:23:09;;;;;;;26.63;8.43;;;3.00;99.90;;;;;;6181761;23;20369;-50
2022/01/07 03:25:35;;;;;;;18.07;8.47;;;3.00;96.90;;;;;;6183093;23;20362;-51
2022/01/07 03:28:01;;;;;;;22.43;9.53;;;3.00;95.60;;;;;;6183439;23;20485;-50
2022/01/07 03:30:27;;;;;;;15.63;7.77;;;3.10;56.90;;;;;;6182766;23;20151;-51
2022/01/07 03:32:52;;;;;;;18.10;8.17;;;3.10;53.20;;;;;;6182628;23;20394;-51
2022/01/07 03:35:18;;;;;;;23.90;8.00;;;3.10;63.40;;;;;;6183537;23;20147;-52
2022/01/07 03:37:44;;;;;;;22.60;7.33;;;3.10;50.00;;;;;;6183421;23;20642;-51
2022/01/07 03:40:12;;;;;;;25.80;7.70;;;3.10;53.70;;;;;;6183008;23;20191;-50
2022/01/07 03:42:38;;;;;;;18.23;7.10;;;3.10;33.90;;;;;;6156858;23;20822;-51
2022/01/07 03:45:05;;;;;;;18.43;7.80;;;3.10;50.70;;;;;;6183008;23;20405;-51
2022/01/07 03:47:31;;;;;;;16.83;7.20;;;3.20;7.40;;;;;;6182861;23;20448;-51
2022/01/07 03:49:57;;;;;;;12.90;6.50;;;3.20;7.70;;;;;;6182547;23;20440;-50
2022/01/07 03:52:22;;;;;;;23.87;7.20;;;3.20;1.00;;;;;;6156511;23;20414;-50
2022/01/07 03:54:50;;;;;;;18.40;7.83;;;3.20;1.00;;;;;;6182672;23;20179;-50
2022/01/07 03:57:15;;;;;;;20.90;6.30;;;3.20;1.00;;;;;;6182602;23;20151;-49
2022/01/07 03:59:41;;;;;;;24.13;7.73;;;3.20;1.00;;;;;;6182629;23;20876;-51
2022/01/07 04:02:07;;;;;;;15.97;6.77;;;3.20;1.00;;;;;;6182466;23;20229;-51
2022/01/07 04:04:32;;;;;;;16.93;6.37;;;3.20;1.00;;;;;;6182111;23;20183;-51
2022/01/07 04:06:58;;;;;;;17.17;6.60;;;3.20;1.00;;;;;;6182360;23;20144;-51
2022/01/07 04:09:23;;;;;;;12.50;6.33;;;3.20;1.00;;;;;;6179602;23;20155;-54
2022/01/07 04:11:49;;;;;;;21.00;6.60;;;3.20;1.00;;;;;;6182231;23;20202;-51
2022/01/07 04:14:14;;;;;;;20.60;7.07;;;3.20;1.00;;;;;;6156112;23;20159;-51
2022/01/07 04:16:40;;;;;;;18.23;6.87;;;3.20;1.00;;;;;;6182491;23;20241;-51
2022/01/07 04:19:05;;;;;;;13.70;5.93;;;3.10;1.00;;;;;;6183023;23;20202;-51
2022/01/07 04:21:31;;;;;;;16.53;5.93;;;3.10;1.00;;;;;;6179865;23;20209;-51
2022/01/07 04:23:56;;;;;;;19.70;7.30;;;3.10;1.00;;;;;;6180406;23;20186;-51
2022/01/07 04:26:22;;;;;;;13.10;6.17;;;3.10;26.90;;;;;;6183077;23;20478;-51
2022/01/07 04:28:47;;;;;;;13.87;6.90;;;3.00;99.90;;;;;;6183356;23;20500;-51
2022/01/07 04:31:13;;;;;;;24.27;6.93;;;3.00;99.90;;;;;;6182930;23;20525;-51
2022/01/07 04:33:38;;;;;;;19.10;7.40;;;2.90;99.90;;;;;;6183840;23;20893;-50
2022/01/07 04:36:04;;;;;;;16.30;7.20;;;2.80;99.90;;;;;;6185061;23;20148;-51
2022/01/07 04:38:30;;;;;;;21.60;8.37;;;2.80;1.00;;;;;;6185289;23;20170;-51
2022/01/07 04:40:56;;;;;;;14.67;6.90;;;2.60;1.00;;;;;;6184135;23;20182;-51
2022/01/07 04:43:21;;;;;;;19.70;7.73;;;2.60;1.00;;;;;;6184213;23;20494;-51
2022/01/07 04:45:47;;;;;;;16.10;7.13;;;2.50;99.90;;;;;;6184064;23;20509;-51
2022/01/07 04:48:13;;;;;;;16.00;7.10;;;2.40;99.90;;;;;;6184031;23;20214;-52
2022/01/07 04:50:39;;;;;;;30.20;9.03;;;2.30;1.00;;;;;;6183864;23;20237;-51
2022/01/07 04:53:05;;;;;;;20.30;7.33;;;2.30;99.90;;;;;;6184216;23;20643;-50
2022/01/07 04:55:39;;;;;;;26.40;7.60;;;2.30;1.00;;;;;;6183905;23;20367;-51
2022/01/07 04:58:10;;;;;;;19.80;8.20;;;2.30;99.90;;;;;;6183852;23;20386;-52
2022/01/07 05:00:37;;;;;;;25.03;8.70;;;2.20;1.00;;;;;;6184113;23;20501;-51
2022/01/07 05:03:03;;;;;;;27.43;9.00;;;2.20;99.90;;;;;;6183731;23;20367;-51
2022/01/07 05:05:29;;;;;;;18.53;9.20;;;2.10;1.00;;;;;;6183948;23;20686;-52
2022/01/07 05:07:54;;;;;;;22.63;8.80;;;2.10;32.90;;;;;;6184204;23;20430;-51
2022/01/07 05:10:20;;;;;;;28.43;9.50;;;2.10;99.90;;;;;;6184013;23;20198;-52
2022/01/07 05:12:46;;;;;;;22.17;9.13;;;2.10;1.00;;;;;;6184008;23;20171;-52
2022/01/07 05:15:13;;;;;;;26.80;10.10;;;2.10;1.00;;;;;;6183682;23;20477;-51
2022/01/07 05:17:39;;;;;;;20.60;9.10;;;2.10;99.90;;;;;;6183779;23;20150;-52
2022/01/07 05:20:05;;;;;;;23.53;10.70;;;2.10;99.90;;;;;;6183493;23;20398;-51
2022/01/07 05:22:31;;;;;;;19.00;9.07;;;2.10;99.90;;;;;;6184177;23;20374;-50
2022/01/07 05:24:57;;;;;;;23.97;9.50;;;2.10;1.00;;;;;;6183722;23;20375;-50
2022/01/07 05:27:22;;;;;;;22.87;10.60;;;2.20;1.00;;;;;;6183903;23;20271;-51
2022/01/07 05:29:48;;;;;;;24.50;9.07;;;2.20;1.00;;;;;;6183527;23;20582;-50
2022/01/07 05:32:14;;;;;;;19.43;9.27;;;2.20;99.90;;;;;;6183857;23;20150;-50
2022/01/07 05:34:39;;;;;;;19.70;9.80;;;2.20;99.90;;;;;;6182602;23;20163;-51
2022/01/07 05:37:07;;;;;;;23.13;11.43;;;2.20;99.90;;;;;;6157198;23;20229;-51
2022/01/07 05:39:32;;;;;;;24.00;10.23;;;2.20;1.00;;;;;;6183815;23;20786;-50
2022/01/07 05:41:59;;;;;;;20.57;10.30;;;2.20;12.70;;;;;;6183315;23;20884;-50
2022/01/07 05:44:25;;;;;;;27.93;10.60;;;2.10;1.00;;;;;;6181447;23;20157;-50
2022/01/07 05:46:51;;;;;;;22.53;9.97;;;2.10;99.90;;;;;;6183707;23;20367;-50
2022/01/07 05:49:17;;;;;;;29.40;11.07;;;2.10;1.00;;;;;;6183972;23;20382;-51
2022/01/07 05:51:42;;;;;;;23.97;9.93;;;2.20;1.00;;;;;;6183566;23;20147;-50
2022/01/07 05:54:09;;;;;;;23.20;10.90;;;2.10;83.50;;;;;;6183170;23;20171;-50
2022/01/07 05:56:35;;;;;;;22.27;11.27;;;2.20;1.00;;;;;;6183196;23;20221;-50
2022/01/07 05:59:01;;;;;;;19.47;10.97;;;2.10;99.90;;;;;;6183875;23;20809;-50
2022/01/07 06:01:26;;;;;;;27.73;10.60;;;2.10;1.00;;;;;;6183436;23;20429;-50
2022/01/07 06:03:52;;;;;;;21.00;11.57;;;2.10;1.00;;;;;;6184502;23;20616;-50
2022/01/07 06:06:18;;;;;;;27.93;11.30;;;2.10;1.00;;;;;;6183481;23;20182;-51
2022/01/07 06:08:44;;;;;;;21.40;11.23;;;2.10;1.00;;;;;;6182966;23;20394;-49
2022/01/07 06:11:09;;;;;;;21.07;10.80;;;2.10;99.90;;;;;;6182033;23;20648;-50
2022/01/07 06:13:36;;;;;;;30.73;10.80;;;2.10;99.90;;;;;;6153363;23;20162;-50
2022/01/07 06:16:02;;;;;;;25.83;11.23;;;2.10;1.00;;;;;;6183526;23;20190;-50
2022/01/07 06:18:28;;;;;;;23.00;10.30;;;2.10;99.90;;;;;;6182186;23;20362;-51
2022/01/07 06:20:54;;;;;;;19.77;10.63;;;2.20;99.90;;;;;;6183106;23;20989;-52
2022/01/07 06:23:20;;;;;;;20.50;10.43;;;2.20;1.00;;;;;;6183475;23;20395;-51
2022/01/07 06:25:49;;;;;;;23.10;11.03;;;2.10;99.90;;;;;;6183613;23;20250;-51
2022/01/07 06:28:16;;;;;;;16.50;10.50;;;2.10;1.00;;;;;;6183123;23;20461;-51
2022/01/07 06:30:41;;;;;;;21.73;10.90;;;2.10;1.00;;;;;;6156984;23;20449;-51
2022/01/07 06:33:07;;;;;;;18.83;9.80;;;2.10;1.00;;;;;;6183857;23;20387;-51
2022/01/07 06:35:32;;;;;;;25.93;11.63;;;2.10;99.90;;;;;;6183589;23;20862;-51
2022/01/07 06:37:58;;;;;;;17.80;10.10;;;2.10;99.90;;;;;;6183180;23;20460;-51
2022/01/07 06:40:23;;;;;;;17.90;10.50;;;2.20;99.90;;;;;;6183149;23;20671;-51
2022/01/07 06:42:49;;;;;;;19.47;10.43;;;2.20;1.00;;;;;;6182262;23;20472;-51
2022/01/07 06:45:15;;;;;;;21.30;10.20;;;2.20;1.00;;;;;;6183345;23;20186;-51
2022/01/07 06:47:40;;;;;;;21.30;10.00;;;2.20;99.90;;;;;;6183080;23;20155;-51
2022/01/07 06:50:07;;;;;;;19.63;9.97;;;2.20;4.30;;;;;;6156684;23;20166;-51
2022/01/07 06:52:33;;;;;;;18.37;9.87;;;2.10;99.90;;;;;;6183269;23;20171;-51
2022/01/07 06:54:58;;;;;;;25.33;10.77;;;2.10;1.00;;;;;;6183683;23;20390;-51
2022/01/07 06:57:24;;;;;;;15.53;8.47;;;2.10;1.00;;;;;;6156795;23;20162;-52
2022/01/07 06:59:50;;;;;;;16.50;8.83;;;2.00;1.00;;;;;;6182935;23;20139;-52
2022/01/07 07:02:15;;;;;;;19.27;9.63;;;2.00;1.00;;;;;;6182847;23;20516;-51
2022/01/07 07:04:41;;;;;;;15.90;10.10;;;2.00;99.90;;;;;;6183008;23;20143;-52
2022/01/07 07:07:06;;;;;;;21.47;10.27;;;2.00;99.90;;;;;;6183494;23;20518;-52
2022/01/07 07:09:32;;;;;;;15.97;8.90;;;2.00;1.00;;;;;;6183121;23;20577;-54
2022/01/07 07:11:57;;;;;;;30.43;9.87;;;2.00;1.00;;;;;;6182439;23;20253;-53
2022/01/07 07:14:23;;;;;;;20.10;10.03;;;1.90;1.00;;;;;;6183247;23;20147;-52
2022/01/07 07:16:49;;;;;;;16.23;9.77;;;1.90;1.00;;;;;;6182871;23;20166;-53
2022/01/07 07:19:14;;;;;;;17.67;9.90;;;1.90;99.90;;;;;;6182471;23;20147;-52
2022/01/07 07:21:40;;;;;;;19.97;9.37;;;1.90;99.90;;;;;;6182523;23;20175;-53
2022/01/07 07:24:06;;;;;;;16.07;9.63;;;1.90;1.00;;;;;;6182798;23;20155;-52
2022/01/07 07:26:32;;;;;;;16.93;9.87;;;1.90;1.00;;;;;;6182841;23;20378;-52
2022/01/07 07:28:57;;;;;;;20.77;10.63;;;1.90;1.00;;;;;;6182758;23;20174;-53
2022/01/07 07:31:23;;;;;;;17.00;10.80;;;1.90;1.00;;;;;;6182890;23;20237;-52
2022/01/07 07:36:31;;;;;;;20.30;11.20;;;1.90;1.00;;;;;;6182776;23;20193;-53
2022/01/07 07:39:01;;;;;;;14.70;9.17;;;1.90;54.70;;;;;;6155947;23;20190;-53
2022/01/07 07:41:30;;;;;;;22.17;11.93;;;2.00;99.90;;;;;;6182872;23;20437;-52
2022/01/07 07:43:57;;;;;;;20.60;10.90;;;2.00;99.90;;;;;;6182946;23;20382;-52
2022/01/07 07:46:23;;;;;;;19.40;10.20;;;2.10;99.90;;;;;;6183024;23;20461;-51
2022/01/07 07:48:51;;;;;;;19.90;9.53;;;2.10;99.90;;;;;;6182724;23;20367;-52
2022/01/07 07:51:18;;;;;;;19.47;10.87;;;2.10;37.40;;;;;;6183097;23;20828;-52
2022/01/07 07:53:44;;;;;;;25.60;11.20;;;2.10;77.60;;;;;;6181444;23;20390;-52
2022/01/07 07:56:12;;;;;;;24.37;11.90;;;2.20;99.40;;;;;;6182865;23;20873;-53
2022/01/07 07:58:38;;;;;;;27.13;11.10;;;2.20;1.00;;;;;;6182946;23;20370;-52
2022/01/07 08:01:04;;;;;;;18.33;10.10;;;2.20;1.00;;;;;;6179910;23;20506;-52
2022/01/07 08:03:30;;;;;;;20.13;10.20;;;2.20;1.00;;;;;;6182406;23;20562;-51
2022/01/07 08:05:55;;;;;;;21.23;11.70;;;2.20;99.90;;;;;;6182190;23;20386;-51
2022/01/07 08:08:21;;;;;;;19.70;11.10;;;2.20;1.00;;;;;;6182723;23;20143;-53
2022/01/07 08:10:51;;;;;;;16.80;9.67;;;2.20;99.90;;;;;;6183566;23;20210;-51
2022/01/07 08:13:30;;;;;;;19.00;10.77;;;2.20;1.00;;;;;;6184285;23;20170;-51
2022/01/07 08:16:04;;;;;;;19.83;11.47;;;2.20;96.80;;;;;;6183493;23;20405;-51
2022/01/07 08:18:35;;;;;;;24.37;11.80;;;2.20;1.00;;;;;;6157423;23;20810;-52
2022/01/07 08:21:06;;;;;;;21.60;11.43;;;2.20;1.00;;;;;;6183106;23;20786;-52
2022/01/07 08:23:33;;;;;;;22.53;11.60;;;2.20;1.00;;;;;;6183772;23;20378;-52
2022/01/07 08:26:00;;;;;;;20.90;11.60;;;2.20;1.00;;;;;;6183100;23;20418;-52
2022/01/07 08:28:29;;;;;;;18.10;10.37;;;2.20;1.00;;;;;;6184216;23;20362;-51
2022/01/07 08:36:20;;;;;;;17.07;10.30;;;2.20;1.00;;;;;;6184110;23;20417;-52
2022/01/07 08:38:48;;;;;;;18.20;10.43;;;2.20;1.00;;;;;;6184063;23;20359;-52
2022/01/07 08:41:15;;;;;;;24.53;11.50;;;2.20;1.00;;;;;;6183818;23;20430;-52
2022/01/07 08:43:41;;;;;;;20.43;10.20;;;2.20;99.90;;;;;;6156832;23;20844;-52
2022/01/07 08:46:08;;;;;;;20.10;11.60;;;2.10;1.00;;;;;;6183700;23;20386;-52
2022/01/07 08:48:35;;;;;;;19.10;11.00;;;2.10;1.00;;;;;;6183131;23;20163;-52
2022/01/07 08:51:02;;;;;;;21.20;10.37;;;2.10;1.00;;;;;;6183575;23;20404;-52
2022/01/07 08:53:27;;;;;;;20.17;10.43;;;2.00;1.00;;;;;;6183866;23;20398;-51
2022/01/07 08:55:53;;;;;;;21.27;10.50;;;1.90;1.00;;;;;;6183133;23;20393;-51
2022/01/07 08:58:18;;;;;;;21.30;10.20;;;1.90;1.00;;;;;;6182685;23;20564;-52
2022/01/07 09:00:44;;;;;;;15.83;10.37;;;1.90;12.70;;;;;;6183705;23;20250;-52
2022/01/07 09:03:10;;;;;;;19.17;11.50;;;1.90;99.90;;;;;;6183868;23;20167;-52
2022/01/07 09:05:35;;;;;;;16.27;10.10;;;1.80;99.90;;;;;;6184152;23;20147;-52
2022/01/07 09:08:01;;;;;;;17.37;10.80;;;1.90;99.90;;;;;;6184054;23;20147;-52
2022/01/07 09:10:26;;;;;;;19.63;10.80;;;1.90;99.90;;;;;;6184006;23;20202;-52
2022/01/07 09:12:53;;;;;;;21.43;10.90;;;1.90;99.90;;;;;;6157881;23;20159;-51
2022/01/07 09:15:19;;;;;;;16.10;10.70;;;1.90;99.90;;;;;;6155602;23;20156;-52
2022/01/07 09:17:44;;;;;;;19.60;10.53;;;2.00;99.90;;;;;;6182574;23;20675;-51
2022/01/07 09:20:11;;;;;;;17.50;11.07;;;2.00;99.90;;;;;;6182933;23;20453;-51
2022/01/07 09:22:37;;;;;;;18.87;11.17;;;1.90;99.90;;;;;;6183032;23;20235;-51
2022/01/07 09:25:04;;;;;;;18.33;10.27;;;1.90;99.90;;;;;;6183879;23;20764;-51
2022/01/07 09:27:34;;;;;;;21.48;12.90;;;1.90;99.90;;;;;;6182649;23;20398;-52
2022/01/07 09:29:59;;;;;;;21.35;13.55;;;1.90;99.90;;;;;;6182673;23;20376;-51
2022/01/07 09:32:25;;;;;;;18.27;11.67;;;2.00;1.00;;;;;;6183710;23;20481;-51
2022/01/07 09:34:51;;;;;;;18.73;11.53;;;2.00;1.00;;;;;;6183973;23;20178;-51
2022/01/07 09:37:17;;;;;;;21.53;11.60;;;2.00;1.00;;;;;;6183868;23;20174;-52
2022/01/07 09:39:43;;;;;;;22.63;11.30;;;2.00;1.00;;;;;;6183769;23;20152;-52
2022/01/07 09:42:09;;;;;;;18.63;11.10;;;2.00;1.00;;;;;;6183572;23;20500;-54
2022/01/07 09:44:42;;;;;;;20.30;11.63;;;2.00;1.00;;;;;;6184095;23;20282;-52
2022/01/07 09:47:12;;;;;;;23.30;11.90;;;2.10;1.00;;;;;;6184241;23;20155;-52
2022/01/07 09:49:41;;;;;;;21.17;11.93;;;2.10;99.90;;;;;;6183369;23;20374;-56
2022/01/07 09:52:08;;;;;;;18.30;10.90;;;2.10;99.90;;;;;;6183428;23;20367;-53
2022/01/07 09:54:35;;;;;;;18.80;11.40;;;2.10;99.90;;;;;;6180791;23;20405;-57
2022/01/07 09:57:02;;;;;;;23.70;12.20;;;2.10;99.90;;;;;;6183771;23;20366;-52
2022/01/07 09:59:27;;;;;;;20.40;11.97;;;2.10;99.90;;;;;;6183535;23;20402;-53
2022/01/07 10:01:58;;;;;;;19.83;12.80;;;2.10;1.00;;;;;;6183547;23;20726;-52
2022/01/07 10:04:31;;;;;;;22.30;13.80;;;2.20;1.00;;;;;;6183790;23;20222;-52
2022/01/07 10:07:22;;;;;;;22.77;12.30;;;2.20;1.00;;;;;;6184324;23;20908;-53
2022/01/07 10:10:10;;;;;;;24.97;11.90;;;2.20;1.00;;;;;;6183079;23;20433;-53
2022/01/07 10:13:03;;;;;;;19.60;12.53;;;2.20;99.90;;;;;;6183578;23;20446;-54
2022/01/07 10:15:31;;;;;;;21.87;12.67;;;2.20;99.90;;;;;;6183630;23;20780;-53
2022/01/07 10:18:05;;;;;;;23.27;13.63;;;2.10;99.90;;;;;;6183708;23;20417;-53
2022/01/07 10:20:37;;;;;;;19.20;12.30;;;2.10;1.00;;;;;;6182961;23;20429;-53
2022/01/07 10:23:29;;;;;;;22.53;14.50;;;2.20;1.00;;;;;;6183831;23;20362;-53
2022/01/07 10:25:56;;;;;;;25.57;14.50;;;2.20;1.00;;;;;;6183486;23;20363;-50
2022/01/07 10:28:28;;;;;;;24.30;14.53;;;2.20;1.00;;;;;;6183502;23;20374;-52
2022/01/07 10:30:55;;;;;;;24.73;14.07;;;2.20;1.00;;;;;;6183265;23;20780;-52
2022/01/07 10:33:25;;;;;;;25.50;14.00;;;2.30;1.00;;;;;;6157078;23;20404;-60
2022/01/07 10:36:06;;;;;;;23.53;13.50;;;2.30;1.00;;;;;;6183651;23;20370;-52
2022/01/07 10:38:34;;;;;;;27.93;13.90;;;2.30;1.00;;;;;;6183797;23;20374;-52
2022/01/07 10:41:00;;;;;;;25.00;14.27;;;2.30;1.00;;;;;;6183524;23;20806;-52
2022/01/07 10:43:32;;;;;;;27.27;15.17;;;2.30;1.00;;;;;;6183707;23;20454;-52
2022/01/07 10:46:19;;;;;;;25.90;14.60;;;2.30;1.00;;;;;;6184035;23;20370;-53
2022/01/07 10:48:53;;;;;;;24.00;13.13;;;2.30;1.00;;;;;;6183325;23;20421;-52
2022/01/07 10:51:26;;;;;;;23.20;14.03;;;2.40;1.00;;;;;;6183319;23;20722;-51
2022/01/07 10:53:57;;;;;;;26.77;15.30;;;2.40;1.00;;;;;;6183880;23;20367;-51
2022/01/07 10:56:47;;;;;;;24.40;14.23;;;2.50;1.00;;;;;;6183531;23;20399;-51
2022/01/07 10:59:14;;;;;;;25.23;14.53;;;2.40;1.00;;;;;;6183544;23;20370;-52
2022/01/07 11:01:46;;;;;;;27.60;14.90;;;2.50;1.00;;;;;;6183248;23;20429;-52
2022/01/07 11:04:16;;;;;;;26.30;16.37;;;2.50;1.00;;;;;;6183579;23;20391;-55
2022/01/07 11:06:43;;;;;;;31.87;15.83;;;2.50;1.00;;;;;;6182997;23;20359;-51
2022/01/07 11:09:12;;;;;;;27.13;14.63;;;2.50;1.00;;;;;;6183059;23;20406;-55
2022/01/07 11:11:52;;;;;;;24.13;14.10;;;2.50;1.00;;;;;;6183192;23;20465;-55
2022/01/07 11:14:22;;;;;;;24.73;15.23;;;2.60;1.00;;;;;;6182589;23;20401;-52
2022/01/07 11:16:48;;;;;;;31.80;15.57;;;2.60;1.00;;;;;;6182965;23;20677;-52
2022/01/07 11:19:22;;;;;;;29.10;15.60;;;2.60;1.00;;;;;;6183375;23;20372;-52
2022/01/07 11:21:53;;;;;;;27.57;16.27;;;2.60;1.00;;;;;;6183487;23;20923;-52
2022/01/07 11:24:42;;;;;;;27.33;16.17;;;2.70;1.00;;;;;;6183093;23;20879;-53
2022/01/07 11:27:16;;;;;;;31.10;17.60;;;2.70;1.00;;;;;;6183333;23;20366;-53
2022/01/07 11:30:11;;;;;;;29.70;16.60;;;2.70;1.00;;;;;;6182809;23;20706;-53
2022/01/07 11:32:41;;;;;;;36.70;18.27;;;2.80;1.00;;;;;;6182919;23;20364;-51
2022/01/07 11:35:19;;;;;;;34.73;17.77;;;2.80;1.00;;;;;;6183373;23;20389;-54
2022/01/07 11:37:58;;;;;;;30.57;16.33;;;2.90;1.00;;;;;;6182963;23;20382;-51
2022/01/07 11:40:29;;;;;;;32.00;17.57;;;2.90;1.00;;;;;;6183159;23;20382;-51
2022/01/07 11:43:01;;;;;;;29.53;16.87;;;2.90;1.00;;;;;;6154388;23;20743;-52
2022/01/07 11:45:29;;;;;;;30.53;17.73;;;2.90;1.00;;;;;;6184911;23;20378;-52
2022/01/07 11:47:57;;;;;;;32.30;17.87;;;2.90;1.00;;;;;;6184813;23;20362;-51
2022/01/07 11:50:23;;;;;;;35.43;18.87;;;2.90;1.00;;;;;;6184974;23;20367;-51
2022/01/07 11:53:02;;;;;;;37.93;18.57;;;2.90;1.00;;;;;;6184817;23;20459;-51
2022/01/07 11:55:36;;;;;;;29.83;17.93;;;2.90;1.00;;;;;;6185493;23;20147;-51
2022/01/07 11:58:10;;;;;;;30.67;16.73;;;3.00;1.00;;;;;;6185024;23;20374;-52
2022/01/07 12:01:03;;;;;;;39.47;19.60;;;3.00;1.00;;;;;;6184909;23;20429;-51
2022/01/07 12:03:49;;;;;;;35.77;18.43;;;3.10;1.00;;;;;;6184918;23;20394;-52
2022/01/07 12:06:17;;;;;;;33.97;20.07;;;3.10;1.00;;;;;;6184894;23;20358;-51
2022/01/07 12:09:04;;;;;;;36.53;19.30;;;3.10;1.00;;;;;;6184828;23;20436;-52
2022/01/07 12:11:40;;;;;;;36.33;18.57;;;3.20;1.00;;;;;;6170093;23;20450;-52
2022/01/07 12:14:11;;;;;;;34.00;19.30;;;3.20;1.00;;;;;;6182950;23;20378;-51
2022/01/07 12:16:37;;;;;;;46.33;20.43;;;3.30;1.00;;;;;;6183120;23;20740;-52
2022/01/07 12:19:15;;;;;;;36.07;19.57;;;3.30;1.00;;;;;;6182930;23;20381;-52
2022/01/07 12:22:07;;;;;;;48.97;20.07;;;3.30;1.00;;;;;;6180711;23;20439;-52
2022/01/07 12:24:33;;;;;;;33.77;18.67;;;3.30;1.00;;;;;;6179619;23;20716;-55
2022/01/07 12:27:07;;;;;;;35.50;19.47;;;3.30;1.00;;;;;;6182711;23;20461;-51
2022/01/07 12:29:35;;;;;;;36.33;20.63;;;3.30;1.00;;;;;;6184731;23;20854;-54
2022/01/07 12:32:04;;;;;;;46.07;20.50;;;3.40;1.00;;;;;;6183829;23;20399;-52
2022/01/07 12:34:33;;;;;;;35.93;20.93;;;3.40;1.00;;;;;;6184455;23;20406;-53
2022/01/07 12:37:05;;;;;;;38.63;20.40;;;3.40;99.90;;;;;;6184570;23;20375;-52
2022/01/07 12:39:34;;;;;;;40.23;19.80;;;3.40;99.90;;;;;;6184542;23;20366;-53
2022/01/07 12:42:00;;;;;;;34.57;20.10;;;3.40;99.90;;;;;;6157544;23;20496;-51
2022/01/07 12:44:32;;;;;;;31.00;19.27;;;3.40;99.90;;;;;;6184615;23;20378;-52
2022/01/07 12:46:58;;;;;;;36.60;19.40;;;3.50;99.90;;;;;;6183708;23;20448;-52
2022/01/07 12:49:40;;;;;;;39.20;20.13;;;3.60;99.90;;;;;;6184337;23;20461;-52
2022/01/07 12:52:08;;;;;;;36.63;19.53;;;3.70;99.90;;;;;;6181517;23;20170;-53
2022/01/07 12:54:34;;;;;;;33.47;19.77;;;3.70;99.90;;;;;;6157759;23;20709;-52
2022/01/07 12:56:59;;;;;;;39.70;21.13;;;3.80;10.50;;;;;;6183562;23;20429;-52